Time;durP1;ratioP1;P1;durP2;ratioP2;P2;SDS_P1;SDS_P2;PMS_P1;PMS_P2;Temp;Humidity;BMP_temperature;BMP_pressure;BME280_temperature;BME280_humidity;BME280_pressure;Samples;Min_cycle;Max_cycle;Signal;HPM_P1;HPM_P2
2021/12/21 00:01:16;;;;;;;2.85;1.33;;;;;;;-9.97;100.00;98851.09;5045074;28;20148;-63
2021/12/21 00:04:00;;;;;;;5.32;1.42;;;;;;;-9.98;100.00;98833.06;5035679;28;20055;-62
2021/12/21 00:06:45;;;;;;;;;;;;;;;-10.03;100.00;98843.09;5043742;28;20428;-65
2021/12/21 00:09:30;;;;;;;4.00;1.50;;;;;;;-9.92;100.00;98838.44;5044567;28;20532;-66
2021/12/21 00:12:17;;;;;;;4.50;1.50;;;;;;;-10.03;100.00;98835.41;5055316;28;20117;-66
2021/12/21 00:15:07;;;;;;;1.95;1.20;;;;;;;-10.16;100.00;98852.78;5035570;28;20091;-63
2021/12/21 00:17:58;;;;;;;4.38;1.45;;;;;;;-10.12;100.00;98841.84;5037130;28;20072;-64
2021/12/21 00:24:21;;;;;;;3.92;1.42;;;;;;;-9.76;100.00;98846.00;5039592;28;20594;-64
2021/12/21 00:27:37;;;;;;;5.43;2.10;;;;;;;-9.65;100.00;98852.47;5041739;28;20059;-63
2021/12/21 00:30:53;;;;;;;5.18;2.08;;;;;;;-9.60;100.00;98850.97;5004464;28;20091;-63
2021/12/21 00:39:04;;;;;;;4.95;1.48;;;;;;;-9.86;100.00;98861.81;5003372;28;20048;-67
2021/12/21 00:41:48;;;;;;;3.55;1.52;;;;;;;-9.65;100.00;98858.50;4976353;28;20092;-61
2021/12/21 00:44:33;;;;;;;3.28;1.42;;;;;;;-10.00;100.00;98873.13;5001557;28;20049;-63
2021/12/21 00:47:17;;;;;;;3.03;1.30;;;;;;;-10.01;100.00;98854.31;4990828;28;20203;-62
2021/12/21 00:50:04;;;;;;;5.47;1.52;;;;;;;-9.66;100.00;98861.00;4994209;28;20164;-64
2021/12/21 00:52:52;;;;;;;2.83;1.08;;;;;;;-9.60;100.00;98856.09;4988904;28;20461;-61
2021/12/21 00:55:36;;;;;;;4.82;1.65;;;;;;;-9.71;100.00;98873.59;5004663;28;20133;-63
2021/12/21 00:58:22;;;;;;;4.18;1.50;;;;;;;-9.75;100.00;98874.28;4999269;28;20092;-61
2021/12/21 01:01:07;;;;;;;4.30;1.30;;;;;;;-9.77;100.00;98857.06;4992592;28;20056;-63
2021/12/21 01:03:54;;;;;;;3.03;1.73;;;;;;;-9.85;100.00;98876.38;5021086;28;20048;-61
2021/12/21 01:06:43;;;;;;;4.18;1.50;;;;;;;-10.15;100.00;98867.31;5021987;28;20095;-63
2021/12/21 01:12:30;;;;;;;4.15;1.55;;;;;;;-10.22;100.00;98867.88;4989854;28;20841;-61
2021/12/21 01:18:21;;;;;;;3.83;1.45;;;;;;;-10.91;100.00;98875.69;4991024;28;20061;-61
2021/12/21 01:21:17;;;;;;;3.75;1.33;;;;;;;-11.04;100.00;98888.69;5005602;28;20093;-61
2021/12/21 01:24:28;;;;;;;1.83;1.10;;;;;;;-10.68;100.00;98873.41;5006047;28;20046;-61
2021/12/21 01:27:36;;;;;;;2.53;1.40;;;;;;;-10.55;100.00;98875.75;5000234;28;20060;-61
2021/12/21 01:30:39;;;;;;;2.28;1.13;;;;;;;-10.60;100.00;98878.91;4988006;28;20081;-62
2021/12/21 01:36:48;;;;;;;2.30;0.85;;;;;;;-10.77;100.00;98866.97;4994100;28;20069;-62
2021/12/21 01:51:39;;;;;;;2.13;1.33;;;;;;;-10.24;100.00;98889.97;5002781;28;20533;-61
2021/12/21 01:54:26;;;;;;;3.85;1.15;;;;;;;-10.30;100.00;98900.81;5008997;28;20104;-59
2021/12/21 01:57:13;;;;;;;2.80;1.20;;;;;;;-10.18;100.00;98897.97;4989293;28;20056;-63
2021/12/21 01:59:58;;;;;;;4.57;1.42;;;;;;;-10.36;100.00;98898.84;5012786;28;20085;-61
2021/12/21 02:02:42;;;;;;;3.30;1.40;;;;;;;-10.44;100.00;98889.06;5024705;28;20103;-61
2021/12/21 02:05:27;;;;;;;3.00;1.30;;;;;;;-10.63;100.00;98894.13;5006950;28;20104;-64
2021/12/21 02:08:12;;;;;;;2.88;1.23;;;;;;;-10.52;100.00;98896.38;5010477;28;20059;-62
2021/12/21 02:11:03;;;;;;;5.45;1.38;;;;;;;-10.43;100.00;98893.38;5004007;28;20072;-67
2021/12/21 02:13:49;;;;;;;3.60;1.25;;;;;;;-10.73;100.00;98900.47;5002914;28;20600;-61
2021/12/21 02:16:53;;;;;;;2.80;1.10;;;;;;;-10.81;100.00;98899.22;4990237;28;20049;-61
2021/12/21 02:19:41;;;;;;;3.33;1.50;;;;;;;-10.77;100.00;98902.81;5039435;28;20551;-62
2021/12/21 02:22:30;;;;;;;2.67;1.48;;;;;;;-10.61;100.00;98926.66;5061406;28;20404;-60
2021/12/21 02:31:03;;;;;;;3.13;1.27;;;;;;;-10.98;100.00;98922.25;5048753;28;20067;-61
2021/12/21 02:33:49;;;;;;;1.98;1.20;;;;;;;-10.89;100.00;98923.56;5047924;28;20051;-56
2021/12/21 02:36:34;;;;;;;2.85;1.23;;;;;;;-10.67;100.00;98915.25;4980206;28;1401665;-63
2021/12/21 02:39:19;;;;;;;2.33;0.93;;;;;;;-10.66;100.00;98912.78;5029723;28;20048;-63
2021/12/21 02:42:06;;;;;;;3.83;1.23;;;;;;;-10.50;100.00;98928.06;5045132;28;20098;-68
2021/12/21 02:44:55;;;;;;;3.50;1.50;;;;;;;-10.47;100.00;98927.31;5034244;28;20051;-62
2021/12/21 02:47:40;;;;;;;1.92;1.20;;;;;;;-10.63;100.00;98904.34;5047619;28;20129;-62
2021/12/21 02:50:24;;;;;;;2.47;1.30;;;;;;;-10.52;100.00;98905.75;5049507;28;20064;-62
2021/12/21 02:53:09;;;;;;;2.10;1.25;;;;;;;-10.69;100.00;98915.19;5048331;28;20059;-61
2021/12/21 02:55:53;;;;;;;;;;;;;;;-10.68;100.00;98934.84;5038684;28;20049;-67
2021/12/21 02:58:39;;;;;;;2.45;1.10;;;;;;;-11.11;100.00;98930.97;5035562;28;19923;-63
2021/12/21 03:01:23;;;;;;;3.88;1.10;;;;;;;-11.09;100.00;98938.72;5044333;28;20067;-65
2021/12/21 03:04:09;;;;;;;3.50;1.27;;;;;;;-11.08;100.00;98935.41;5046871;28;20048;-65
2021/12/21 03:10:02;;;;;;;4.40;1.40;;;;;;;-11.20;100.00;98943.31;5036621;28;20194;-63
2021/12/21 03:15:38;;;;;;;2.90;1.45;;;;;;;-11.29;100.00;98940.31;5026869;28;20059;-62
2021/12/21 03:18:23;;;;;;;2.20;1.10;;;;;;;-11.55;100.00;98939.78;5028256;28;20475;-67
2021/12/21 03:21:07;;;;;;;2.50;1.10;;;;;;;-11.37;100.00;98962.06;5046772;28;20179;-65
2021/12/21 03:23:52;;;;;;;;;;;;;;;-11.18;100.00;98967.31;5043793;28;20642;-64
2021/12/21 03:26:38;;;;;;;3.28;1.30;;;;;;;-10.94;100.00;98965.97;5032168;28;19928;-64
2021/12/21 03:29:23;;;;;;;2.22;1.33;;;;;;;-10.89;100.00;98954.28;5028352;28;20770;-65
2021/12/21 03:32:08;;;;;;;2.80;1.55;;;;;;;-11.17;100.00;98963.06;5037257;28;20471;-67
2021/12/21 03:34:52;;;;;;;3.58;1.20;;;;;;;-11.22;100.00;98952.59;5044564;28;20404;-63
2021/12/21 03:37:37;;;;;;;2.78;1.10;;;;;;;-10.98;100.00;98965.75;5045583;28;20064;-64
2021/12/21 03:40:22;;;;;;;;;;;;;;;-10.90;100.00;98967.00;5047909;28;20060;-68
2021/12/21 03:43:06;;;;;;;2.72;1.20;;;;;;;-11.21;100.00;98971.38;5045068;28;20398;-66
2021/12/21 03:45:59;;;;;;;2.35;1.00;;;;;;;-11.22;100.00;98967.97;5041167;28;20044;-64
2021/12/21 03:48:48;;;;;;;2.50;0.95;;;;;;;-11.41;100.00;98972.91;5027170;28;20049;-67
2021/12/21 03:51:32;;;;;;;2.97;1.45;;;;;;;-10.93;100.00;98979.63;5042296;28;20048;-65
2021/12/21 03:54:16;;;;;;;2.58;1.20;;;;;;;-11.01;100.00;98984.38;5044161;28;20160;-64
2021/12/21 03:57:02;;;;;;;2.58;0.90;;;;;;;-11.11;100.00;98994.94;5029671;28;20086;-64
2021/12/21 03:59:49;;;;;;;3.20;1.20;;;;;;;-11.14;100.00;98999.03;5053203;28;20048;-69
2021/12/21 04:02:33;;;;;;;2.90;1.42;;;;;;;-10.86;100.00;98990.28;5011815;28;20047;-66
2021/12/21 04:05:18;;;;;;;3.28;1.40;;;;;;;-10.68;100.00;98978.38;5029588;28;20051;-69
2021/12/21 04:08:03;;;;;;;3.92;1.40;;;;;;;-10.69;100.00;98994.53;5032351;28;20511;-66
2021/12/21 04:10:47;;;;;;;2.33;1.00;;;;;;;-10.58;100.00;98988.28;5011473;28;20175;-66
2021/12/21 04:13:32;;;;;;;2.13;1.08;;;;;;;-10.77;100.00;98990.72;5032371;28;20060;-65
2021/12/21 04:16:16;;;;;;;4.07;1.58;;;;;;;-10.83;100.00;98992.09;5044906;28;20052;-63
2021/12/21 04:19:01;;;;;;;2.38;1.20;;;;;;;-10.77;100.00;98993.28;5048414;28;20516;-63
2021/12/21 04:21:45;;;;;;;4.72;1.80;;;;;;;-10.81;100.00;98978.56;5046734;28;20099;-64
2021/12/21 04:24:29;;;;;;;4.38;1.58;;;;;;;-10.85;100.00;98994.59;5012798;28;20056;-61
2021/12/21 04:27:16;;;;;;;5.93;1.77;;;;;;;-11.04;100.00;98994.44;5026827;28;20064;-63
2021/12/21 04:30:00;;;;;;;2.65;1.35;;;;;;;-10.74;100.00;98992.56;5028036;28;20102;-72
2021/12/21 04:32:45;;;;;;;4.00;1.65;;;;;;;-10.58;100.00;99000.19;5041814;28;20102;-63
2021/12/21 04:35:30;;;;;;;4.28;1.50;;;;;;;-10.66;100.00;99006.59;5046676;28;20080;-64
2021/12/21 04:38:27;;;;;;;1.95;1.25;;;;;;;-10.92;100.00;99012.97;5032019;28;20060;-63
2021/12/21 04:41:22;;;;;;;2.40;1.00;;;;;;;-11.12;100.00;99005.97;5031011;28;20136;-64
2021/12/21 04:44:07;;;;;;;3.47;1.55;;;;;;;-11.07;100.00;99019.88;5048623;28;20087;-62
2021/12/21 04:46:51;;;;;;;3.58;1.45;;;;;;;-10.82;100.00;99006.66;5051201;28;20095;-62
2021/12/21 04:49:36;;;;;;;3.13;1.20;;;;;;;-10.79;100.00;99006.81;5050796;28;20075;-64
2021/12/21 04:52:20;;;;;;;2.38;1.25;;;;;;;-10.92;100.00;99023.22;5050498;28;20044;-62
2021/12/21 04:55:05;;;;;;;;;;;;;;;-10.85;100.00;99029.53;5035941;28;20374;-64
2021/12/21 04:57:49;;;;;;;3.65;1.60;;;;;;;-10.79;100.00;99025.63;5016056;28;19924;-67
2021/12/21 05:00:35;;;;;;;3.70;1.63;;;;;;;-10.80;100.00;99020.41;5031260;28;20052;-64
2021/12/21 05:03:20;;;;;;;6.13;1.50;;;;;;;-10.87;100.00;99026.03;5036785;28;20114;-65
2021/12/21 05:06:05;;;;;;;5.28;1.80;;;;;;;-10.97;100.00;99026.34;5041433;28;20047;-62
2021/12/21 05:09:04;;;;;;;;;;;;;;;-10.68;100.00;99036.38;5042153;28;20107;-63
2021/12/21 05:11:49;;;;;;;1.95;1.30;;;;;;;-10.88;100.00;99021.72;5027525;28;19947;-62
2021/12/21 05:14:34;;;;;;;3.53;1.48;;;;;;;-10.64;100.00;99046.84;5042825;28;20060;-63
2021/12/21 05:17:19;;;;;;;3.88;1.48;;;;;;;-10.65;100.00;99051.88;5036037;28;20049;-63
2021/12/21 05:20:05;;;;;;;4.40;1.67;;;;;;;-10.59;100.00;99049.63;5039966;28;20175;-60
2021/12/21 05:22:49;;;;;;;3.55;1.27;;;;;;;-10.88;100.00;99050.72;5037284;28;20100;-65
2021/12/21 05:25:36;;;;;;;4.05;1.20;;;;;;;-10.95;100.00;99058.88;5033796;28;20535;-73
2021/12/21 05:28:21;;;;;;;4.70;1.70;;;;;;;-10.87;100.00;99061.84;5040064;28;20099;-62
2021/12/21 05:31:05;;;;;;;3.40;1.40;;;;;;;-10.52;100.00;99075.63;5013239;28;20072;-64
2021/12/21 05:33:52;;;;;;;4.90;1.50;;;;;;;-10.27;100.00;99069.16;5049728;28;20056;-60
2021/12/21 05:36:36;;;;;;;4.88;1.50;;;;;;;-10.43;100.00;99065.84;5049824;28;20177;-64
2021/12/21 05:39:26;;;;;;;3.90;1.58;;;;;;;-10.65;100.00;99069.81;5037858;28;20099;-62
2021/12/21 05:42:10;;;;;;;3.25;1.38;;;;;;;-10.82;100.00;99061.28;5030515;28;20048;-62
2021/12/21 05:44:55;;;;;;;3.75;1.50;;;;;;;-10.72;100.00;99063.50;5040857;28;20080;-63
2021/12/21 05:47:39;;;;;;;2.42;1.40;;;;;;;-10.88;100.00;99073.75;5044865;28;20043;-62
2021/12/21 05:50:24;;;;;;;;;;;;;;;-10.61;100.00;99072.59;5047763;28;20535;-62
2021/12/21 05:53:08;;;;;;;3.80;1.77;;;;;;;-10.45;100.00;99087.03;5035492;28;19924;-63
2021/12/21 05:55:53;;;;;;;3.20;1.38;;;;;;;-10.54;100.00;99076.34;5040029;28;20056;-60
2021/12/21 05:58:37;;;;;;;3.35;1.40;;;;;;;-10.59;100.00;99086.38;5029841;28;20416;-62
2021/12/21 06:01:22;;;;;;;4.25;1.63;;;;;;;-10.55;100.00;99090.84;5033420;28;20154;-64
2021/12/21 06:04:06;;;;;;;5.47;1.42;;;;;;;-10.49;100.00;99093.69;5060352;28;20051;-66
2021/12/21 06:06:52;;;;;;;4.28;1.73;;;;;;;-10.57;100.00;99089.88;5048518;28;20936;-63
2021/12/21 06:09:37;;;;;;;4.22;1.33;;;;;;;-10.65;100.00;99075.81;5046939;28;20055;-65
2021/12/21 06:12:43;;;;;;;5.43;1.63;;;;;;;-10.58;100.00;99100.03;5046393;28;20641;-63
2021/12/21 06:27:27;;;;;;;4.72;1.70;;;;;;;-10.61;100.00;99103.31;5045606;28;20040;-63
2021/12/21 06:30:13;;;;;;;4.82;1.85;;;;;;;-10.42;100.00;99100.91;5030456;28;20091;-63
2021/12/21 06:32:58;;;;;;;4.80;1.60;;;;;;;-10.41;100.00;99110.34;5047426;28;20527;-67
2021/12/21 06:35:42;;;;;;;;;;;;;;;-10.16;100.00;99109.00;5048837;28;20048;-62
2021/12/21 06:38:27;;;;;;;4.20;2.00;;;;;;;-10.27;100.00;99107.56;5057510;28;19928;-65
2021/12/21 06:41:12;;;;;;;;;;;;;;;-10.65;100.00;99109.09;5028753;28;20063;-63
2021/12/21 06:43:57;;;;;;;3.80;1.52;;;;;;;-10.84;100.00;99100.41;5023240;28;19923;-62
2021/12/21 06:52:35;;;;;;;3.25;1.48;;;;;;;-10.88;100.00;99127.50;5033639;28;20099;-61
2021/12/21 06:55:20;;;;;;;6.30;1.98;;;;;;;-10.56;100.00;99121.50;5026068;28;20080;-60
2021/12/21 06:58:05;;;;;;;4.50;1.80;;;;;;;-10.28;100.00;99127.22;5049887;28;20083;-62
2021/12/21 07:00:52;;;;;;;2.83;1.70;;;;;;;-10.04;100.00;99114.69;5027587;28;20142;-66
2021/12/21 07:03:37;;;;;;;4.63;1.50;;;;;;;-10.11;100.00;99125.47;5040165;28;20048;-60
2021/12/21 07:06:23;;;;;;;5.55;1.92;;;;;;;-10.51;100.00;99128.63;5045553;28;20094;-64
2021/12/21 07:12:15;;;;;;;3.60;1.65;;;;;;;-10.19;100.00;99144.69;5026716;28;20048;-63
2021/12/21 07:20:47;;;;;;;5.15;1.83;;;;;;;-10.19;100.00;99147.25;5031386;28;20493;-64
2021/12/21 07:23:32;;;;;;;4.07;1.90;;;;;;;-10.26;100.00;99142.66;5037112;28;20279;-63
2021/12/21 07:26:17;;;;;;;4.97;1.80;;;;;;;-10.55;100.00;99151.41;5032025;28;20136;-63
2021/12/21 07:29:02;;;;;;;4.38;1.88;;;;;;;-10.27;100.00;99149.44;5035856;28;20052;-60
2021/12/21 07:31:48;;;;;;;4.78;1.73;;;;;;;-10.07;100.00;99153.88;5045473;28;20048;-66
2021/12/21 07:34:32;;;;;;;3.95;1.88;;;;;;;-9.86;100.00;99157.47;5031840;28;20048;-64
2021/12/21 07:37:16;;;;;;;5.00;1.60;;;;;;;-9.97;100.00;99163.78;5045712;28;20063;-62
2021/12/21 07:40:04;;;;;;;4.47;1.85;;;;;;;-9.95;100.00;99158.69;5041905;28;20564;-62
2021/12/21 07:42:49;;;;;;;6.65;2.03;;;;;;;-9.63;100.00;99156.00;5027195;28;20068;-64
2021/12/21 07:45:35;;;;;;;4.70;2.20;;;;;;;-9.52;100.00;99162.53;5026793;28;20048;-63
2021/12/21 07:48:20;;;;;;;;;;;;;;;-9.80;100.00;99165.47;5030274;28;20122;-65
2021/12/21 07:51:06;;;;;;;3.85;1.67;;;;;;;-9.91;100.00;99153.81;5030333;28;20360;-71
2021/12/21 07:53:51;;;;;;;4.07;1.70;;;;;;;-9.72;100.00;99155.56;5030317;28;20471;-66
2021/12/21 07:56:36;;;;;;;6.90;1.92;;;;;;;-9.83;100.00;99142.25;5028603;28;20485;-64
2021/12/21 07:59:21;;;;;;;3.97;1.77;;;;;;;-9.62;100.00;99163.78;5028353;28;20051;-64
2021/12/21 08:02:07;;;;;;;3.28;1.48;;;;;;;-9.50;100.00;99164.38;5057321;28;20048;-64
2021/12/21 08:04:52;;;;;;;5.72;2.40;;;;;;;-9.60;100.00;99157.06;5047036;28;20094;-64
2021/12/21 08:07:46;;;;;;;4.18;1.88;;;;;;;-9.64;100.00;99161.94;5035908;28;20147;-64
2021/12/21 08:10:42;;;;;;;5.03;2.00;;;;;;;-9.76;100.00;99162.25;5062478;28;20424;-64
2021/12/21 08:13:27;;;;;;;3.95;2.15;;;;;;;-9.60;100.00;99158.72;5034731;28;20047;-64
2021/12/21 08:16:13;;;;;;;5.45;2.35;;;;;;;-9.41;100.00;99161.38;5044766;28;20523;-64
2021/12/21 08:18:57;;;;;;;5.05;1.70;;;;;;;-9.36;100.00;99165.03;5048111;28;20083;-68
2021/12/21 08:21:41;;;;;;;4.88;1.83;;;;;;;-9.43;100.00;99160.44;5049889;28;20156;-64
2021/12/21 08:24:29;;;;;;;4.82;2.08;;;;;;;-9.73;100.00;99164.09;5046692;28;20453;-64
2021/12/21 08:27:14;;;;;;;7.30;1.83;;;;;;;-10.08;100.00;99169.19;5031790;28;20071;-65
2021/12/21 08:29:58;;;;;;;3.15;1.42;;;;;;;-9.96;100.00;99174.88;5048031;28;20579;-64
2021/12/21 08:32:43;;;;;;;6.20;2.00;;;;;;;-10.35;100.00;99171.25;5035515;28;20106;-61
2021/12/21 08:35:28;;;;;;;4.43;2.28;;;;;;;-10.84;100.00;99170.38;5047056;28;20136;-65
2021/12/21 08:38:15;;;;;;;;;;;;;;;-10.43;100.00;99169.97;5045491;28;20067;-67
2021/12/21 08:41:00;;;;;;;5.10;1.85;;;;;;;-10.39;100.00;99171.88;5017055;28;19927;-65
2021/12/21 08:43:45;;;;;;;;;;;;;;;-9.98;100.00;99176.50;5032362;28;20251;-64
2021/12/21 08:46:30;;;;;;;6.68;1.73;;;;;;;-9.92;100.00;99181.91;5051246;28;19931;-65
2021/12/21 08:49:14;;;;;;;4.88;1.80;;;;;;;-9.92;100.00;99176.78;5048905;28;20063;-65
2021/12/21 08:51:58;;;;;;;6.05;1.80;;;;;;;-9.80;100.00;99179.97;5021111;28;20075;-63
2021/12/21 08:54:44;;;;;;;3.60;1.90;;;;;;;-9.66;100.00;99178.97;5047303;28;20086;-65
2021/12/21 08:57:29;;;;;;;3.75;1.92;;;;;;;-9.74;100.00;99182.84;5059690;28;20059;-65
2021/12/21 09:00:16;;;;;;;5.40;2.17;;;;;;;-10.11;100.00;99195.53;5048041;28;20146;-54
2021/12/21 09:03:01;;;;;;;;;;;;;;;-10.07;100.00;99186.31;5033818;28;20107;-64
2021/12/21 09:05:47;;;;;;;6.00;2.60;;;;;;;-9.66;100.00;99168.72;5045223;28;19923;-64
2021/12/21 09:08:32;;;;;;;;;;;;;;;-9.30;100.00;99184.16;5059319;28;20067;-65
2021/12/21 09:11:20;;;;;;;6.82;2.13;;;;;;;-9.44;100.00;99171.47;5033032;28;19927;-70
2021/12/21 09:14:06;;;;;;;5.50;2.00;;;;;;;-9.66;100.00;99155.88;5047714;28;20519;-66
2021/12/21 09:16:51;;;;;;;5.95;2.80;;;;;;;-9.91;100.00;99181.09;5041620;28;20059;-65
2021/12/21 09:19:35;;;;;;;5.78;2.42;;;;;;;-9.58;100.00;99180.22;5045884;28;20059;-72
2021/12/21 09:22:20;;;;;;;7.90;2.45;;;;;;;-9.18;100.00;99182.16;5033853;28;20044;-63
2021/12/21 09:25:04;;;;;;;5.15;2.53;;;;;;;-8.73;100.00;99185.97;5041188;28;20075;-64
2021/12/21 09:27:49;;;;;;;;;;;;;;;-8.69;100.00;99177.59;5028621;28;20071;-63
2021/12/21 09:30:35;;;;;;;5.68;1.77;;;;;;;-8.83;100.00;99173.53;5035521;28;19932;-68
2021/12/21 09:33:19;;;;;;;5.97;2.20;;;;;;;-8.86;100.00;99193.94;5058720;28;20075;-66
2021/12/21 09:36:04;;;;;;;6.15;2.58;;;;;;;-8.96;100.00;99194.31;5040936;28;20127;-64
2021/12/21 09:38:49;;;;;;;7.93;2.47;;;;;;;-8.91;100.00;99190.28;5045854;28;20078;-64
2021/12/21 09:41:34;;;;;;;5.38;1.95;;;;;;;-8.67;100.00;99191.41;5042981;28;20669;-65
2021/12/21 09:44:18;;;;;;;;;;;;;;;-8.75;100.00;99179.91;5043040;28;20056;-63
2021/12/21 09:47:06;;;;;;;6.38;2.72;;;;;;;-8.42;100.00;99177.16;5042353;28;19944;-66
2021/12/21 09:49:51;;;;;;;5.97;2.53;;;;;;;-8.38;100.00;99179.03;5022285;28;20056;-64
2021/12/21 09:52:35;;;;;;;;;;;;;;;-8.28;100.00;99188.03;5014992;28;20043;-65
2021/12/21 09:55:22;;;;;;;5.13;2.15;;;;;;;-8.46;99.53;99185.53;5043344;28;19927;-65
2021/12/21 09:58:06;;;;;;;10.82;2.88;;;;;;;-8.51;99.83;99183.56;5056827;28;20063;-62
2021/12/21 10:00:51;;;;;;;;;;;;;;;-8.32;100.00;99181.00;5031980;28;20190;-63
2021/12/21 10:03:36;;;;;;;3.95;2.25;;;;;;;-9.00;99.39;99167.63;5046488;28;20017;-66
2021/12/21 10:06:20;;;;;;;5.95;2.53;;;;;;;-9.18;100.00;99181.31;5030445;28;20062;-63
2021/12/21 10:09:06;;;;;;;;;;;;;;;-9.50;100.00;99177.19;5056094;28;20753;-68
2021/12/21 10:11:53;;;;;;;4.90;2.25;;;;;;;-9.83;100.00;99192.63;5033780;28;20447;-67
2021/12/21 10:14:38;;;;;;;6.10;2.53;;;;;;;-9.86;100.00;99184.81;5039607;28;20140;-64
2021/12/21 10:17:24;;;;;;;5.25;2.30;;;;;;;-9.75;100.00;99181.94;5040313;28;20059;-63
2021/12/21 10:20:09;;;;;;;4.45;2.20;;;;;;;-9.82;100.00;99179.88;5044219;28;20424;-64
2021/12/21 10:22:53;;;;;;;6.13;2.92;;;;;;;-10.00;100.00;99190.91;5036561;28;20052;-66
2021/12/21 10:25:46;;;;;;;7.20;2.20;;;;;;;-9.79;100.00;99190.28;5044171;28;20139;-65
2021/12/21 10:28:40;;;;;;;5.57;2.22;;;;;;;-9.77;100.00;99192.94;5025212;28;20467;-64
2021/12/21 10:31:29;;;;;;;5.28;2.13;;;;;;;-9.21;100.00;99191.41;5036782;28;20474;-67
2021/12/21 10:34:18;;;;;;;5.03;2.15;;;;;;;-9.27;100.00;99194.56;5043749;28;20378;-66
2021/12/21 10:37:05;;;;;;;7.70;2.42;;;;;;;-9.44;100.00;99180.06;5037466;28;20885;-67
2021/12/21 10:40:00;;;;;;;6.00;2.25;;;;;;;-9.36;100.00;99194.13;5030059;28;20425;-68
2021/12/21 10:42:48;;;;;;;6.55;2.30;;;;;;;-9.49;100.00;99189.25;5044588;28;20417;-65
2021/12/21 10:45:43;;;;;;;6.72;2.70;;;;;;;-9.62;100.00;99188.56;5026735;28;20182;-69
2021/12/21 10:48:35;;;;;;;5.03;2.55;;;;;;;-9.69;100.00;99197.66;5041675;28;20418;-66
2021/12/21 10:51:23;;;;;;;6.97;2.60;;;;;;;-9.23;100.00;99187.91;5045463;28;20110;-68
2021/12/21 10:54:07;;;;;;;8.30;2.55;;;;;;;-9.02;100.00;99186.34;5026298;28;20217;-67
2021/12/21 10:57:05;;;;;;;8.73;2.53;;;;;;;-9.09;100.00;99187.75;5014497;28;20087;-68
2021/12/21 10:59:57;;;;;;;6.20;2.92;;;;;;;-9.21;100.00;99197.44;5027970;28;20133;-64
2021/12/21 11:02:43;;;;;;;6.93;2.75;;;;;;;-8.88;100.00;99195.53;5042578;28;20043;-65
2021/12/21 11:05:28;;;;;;;8.18;3.00;;;;;;;-8.62;100.00;99184.78;5046047;28;20052;-69
2021/12/21 11:08:24;;;;;;;7.55;2.97;;;;;;;-8.58;100.00;99192.69;5030223;28;20182;-68
2021/12/21 11:11:48;;;;;;;8.85;2.80;;;;;;;-8.64;100.00;99207.81;5040030;28;20155;-64
2021/12/21 11:14:36;;;;;;;5.70;2.90;;;;;;;-8.67;100.00;99206.81;4993958;28;20217;-64
2021/12/21 11:17:22;;;;;;;6.60;3.08;;;;;;;-8.93;100.00;99210.75;4985672;28;20207;-59
2021/12/21 11:20:11;;;;;;;7.68;3.13;;;;;;;-9.18;100.00;99209.53;4997782;28;20050;-61
2021/12/21 11:22:55;;;;;;;8.13;2.85;;;;;;;-8.86;100.00;99219.63;4992821;28;20148;-61
2021/12/21 11:25:42;;;;;;;6.57;2.83;;;;;;;-8.86;100.00;99223.06;4995390;28;20049;-62
2021/12/21 11:28:36;;;;;;;6.90;2.67;;;;;;;-9.03;100.00;99226.53;5001698;28;20056;-63
2021/12/21 11:31:21;;;;;;;8.82;3.47;;;;;;;-9.12;100.00;99222.63;4984739;28;20085;-59
2021/12/21 11:34:12;;;;;;;7.93;3.05;;;;;;;-9.21;100.00;99235.94;5004572;28;20112;-57
2021/12/21 11:40:00;;;;;;;6.60;2.60;;;;;;;-9.25;100.00;99234.03;4984379;28;20097;-70
2021/12/21 11:42:44;;;;;;;5.87;3.00;;;;;;;-9.05;100.00;99240.09;4964907;28;20053;-59
2021/12/21 11:45:52;;;;;;;6.78;3.15;;;;;;;-8.87;100.00;99246.97;4981578;28;20128;-66
2021/12/21 11:48:55;;;;;;;6.65;2.72;;;;;;;-8.90;100.00;99251.97;4999523;28;20056;-65
2021/12/21 11:51:40;;;;;;;7.95;2.92;;;;;;;-8.87;100.00;99243.53;5022647;28;20609;-68
2021/12/21 11:54:28;;;;;;;7.00;3.03;;;;;;;-9.04;100.00;99247.88;5023703;28;20068;-68
2021/12/21 11:57:13;;;;;;;7.45;3.28;;;;;;;-9.46;100.00;99232.97;5040779;28;20056;-65
2021/12/21 12:00:13;;;;;;;8.57;3.72;;;;;;;-9.22;100.00;99258.94;5055288;28;20048;-68
2021/12/21 12:03:19;;;;;;;8.20;2.30;;;;;;;-9.21;100.00;99258.13;5029633;28;20048;-66
2021/12/21 12:06:12;;;;;;;8.00;3.08;;;;;;;-9.25;100.00;99261.38;5022675;28;20539;-65
2021/12/21 12:09:04;;;;;;;7.60;2.78;;;;;;;-9.33;100.00;99261.00;5027668;28;20127;-65
2021/12/21 12:11:49;;;;;;;9.15;2.85;;;;;;;-9.26;100.00;99272.44;5028951;28;20056;-64
2021/12/21 12:14:37;;;;;;;6.88;2.72;;;;;;;-9.19;100.00;99266.81;5029864;28;20566;-64
2021/12/21 12:17:26;;;;;;;7.03;2.95;;;;;;;-9.51;100.00;99259.22;5053339;28;20060;-66
2021/12/21 12:20:11;;;;;;;6.80;2.75;;;;;;;-9.27;100.00;99276.69;5028175;28;20539;-65
2021/12/21 12:23:06;;;;;;;8.10;3.08;;;;;;;-9.53;100.00;99274.53;5028797;28;20107;-63
2021/12/21 12:25:56;;;;;;;12.77;3.13;;;;;;;-9.79;100.00;99274.00;5035350;28;20052;-65
2021/12/21 12:28:41;;;;;;;10.48;3.33;;;;;;;-9.99;100.00;99267.00;5055431;28;20562;-65
2021/12/21 12:31:32;;;;;;;8.52;3.15;;;;;;;-9.62;100.00;99284.31;5030095;28;20076;-67
2021/12/21 12:34:28;;;;;;;9.65;2.72;;;;;;;-9.47;100.00;99286.78;5034139;28;20039;-65
2021/12/21 12:37:21;;;;;;;6.65;3.10;;;;;;;-9.58;100.00;99286.22;5041520;28;20132;-64
2021/12/21 12:40:09;;;;;;;5.28;2.65;;;;;;;-9.85;100.00;99291.66;5055229;28;20056;-66
2021/12/21 12:43:11;;;;;;;7.75;3.10;;;;;;;-10.00;100.00;99306.25;5037729;28;20072;-67
2021/12/21 12:46:04;;;;;;;10.25;3.60;;;;;;;-10.16;100.00;99307.19;5045185;28;20056;-68
2021/12/21 12:48:49;;;;;;;8.93;3.40;;;;;;;-10.08;100.00;99305.91;5056006;28;20795;-67
2021/12/21 12:51:36;;;;;;;7.40;2.75;;;;;;;-9.99;100.00;99321.72;5046231;28;20370;-63
2021/12/21 12:54:21;;;;;;;5.43;3.03;;;;;;;-9.89;100.00;99331.66;5044026;28;20060;-64
2021/12/21 12:57:11;;;;;;;7.20;3.65;;;;;;;-9.90;100.00;99332.44;5029283;28;20044;-65
2021/12/21 13:00:13;;;;;;;9.98;3.63;;;;;;;-10.02;100.00;99333.50;5044558;28;20059;-62
2021/12/21 13:03:09;;;;;;;7.93;3.33;;;;;;;-9.82;100.00;99330.28;5037244;28;20102;-68
2021/12/21 13:05:54;;;;;;;8.90;3.65;;;;;;;-9.62;100.00;99332.19;5041797;28;20056;-66
2021/12/21 13:08:43;;;;;;;9.73;4.18;;;;;;;-9.55;100.00;99329.13;5032047;28;20532;-66
2021/12/21 13:11:33;;;;;;;11.68;4.07;;;;;;;-9.57;100.00;99331.63;5046499;28;20535;-69
2021/12/21 13:14:18;;;;;;;13.02;4.82;;;;;;;-9.87;100.00;99330.03;5030265;28;20047;-65
2021/12/21 13:17:02;;;;;;;11.23;4.30;;;;;;;-9.81;100.00;99332.03;5056812;28;20102;-66
2021/12/21 13:19:47;;;;;;;7.97;4.10;;;;;;;-9.70;100.00;99325.78;5043869;28;20083;-63
2021/12/21 13:22:31;;;;;;;12.25;4.72;;;;;;;-9.66;100.00;99333.69;5034032;28;20068;-61
2021/12/21 13:25:17;;;;;;;10.95;4.13;;;;;;;-9.75;100.00;99337.47;5043865;28;20143;-67
2021/12/21 13:28:13;;;;;;;17.50;7.15;;;;;;;-9.77;100.00;99329.72;5042736;28;20103;-74
2021/12/21 13:30:59;;;;;;;7.45;3.63;;;;;;;-10.05;100.00;99334.25;5023116;28;20053;-64
2021/12/21 13:33:53;;;;;;;7.60;3.60;;;;;;;-10.09;100.00;99337.47;5043184;28;20055;-66
2021/12/21 13:36:43;;;;;;;12.52;4.70;;;;;;;-10.31;100.00;99342.22;5033309;28;20118;-64
2021/12/21 13:39:30;;;;;;;9.10;3.78;;;;;;;-10.22;100.00;99342.72;5044654;28;20098;-64
2021/12/21 13:42:22;;;;;;;9.77;3.53;;;;;;;-10.41;100.00;99345.97;5056909;28;20047;-67
2021/12/21 13:45:07;;;;;;;11.95;3.70;;;;;;;-10.31;100.00;99344.78;5041148;28;20048;-74
2021/12/21 13:47:53;;;;;;;8.43;3.33;;;;;;;-10.67;100.00;99333.47;5046354;28;20056;-67
2021/12/21 13:50:37;;;;;;;10.18;3.63;;;;;;;-10.31;100.00;99337.13;5043373;28;20055;-63
2021/12/21 13:53:22;;;;;;;9.98;3.60;;;;;;;-10.15;100.00;99338.78;5045244;28;20079;-62
2021/12/21 13:56:11;;;;;;;8.77;3.70;;;;;;;-10.06;100.00;99336.75;5044651;28;20099;-59
2021/12/21 13:58:56;;;;;;;11.23;3.47;;;;;;;-10.37;100.00;99352.13;5043453;28;20527;-60
2021/12/21 14:01:44;;;;;;;9.20;3.30;;;;;;;-10.48;100.00;99351.56;5044703;28;20043;-61
2021/12/21 14:04:39;;;;;;;9.32;3.55;;;;;;;-10.43;100.00;99350.16;5041848;28;20055;-60
2021/12/21 14:07:24;;;;;;;6.88;3.05;;;;;;;-10.33;100.00;99353.19;5016056;28;20090;-65
2021/12/21 14:10:22;;;;;;;9.02;3.08;;;;;;;-10.22;100.00;99364.91;5027191;28;20103;-62